createdAt,value
2023-02-15T00:02:20.809Z,99.10
2023-02-15T00:04:52.667Z,99.20
2023-02-15T00:07:24.883Z,99.40
2023-02-15T00:09:56.763Z,99.50
2023-02-15T00:12:28.536Z,99.40
2023-02-15T00:15:00.482Z,99.20
2023-02-15T00:17:32.360Z,99.10
2023-02-15T00:20:04.451Z,99.10
2023-02-15T00:22:36.333Z,98.90
2023-02-15T00:25:08.250Z,98.80
2023-02-15T00:27:40.089Z,98.90
2023-02-15T00:30:12.481Z,99.10
2023-02-15T00:32:44.377Z,99.10
2023-02-15T00:35:17.370Z,99.00
2023-02-15T00:37:50.004Z,98.80
2023-02-15T00:40:21.881Z,98.70
2023-02-15T00:42:53.966Z,98.40
2023-02-15T00:45:25.827Z,98.30
2023-02-15T00:47:57.730Z,98.40
2023-02-15T00:50:29.768Z,98.40
2023-02-15T00:53:01.608Z,98.30
2023-02-15T00:55:33.501Z,98.40
2023-02-15T00:58:05.376Z,98.40
2023-02-15T01:00:38.680Z,98.50
2023-02-15T01:03:11.067Z,98.60
2023-02-15T01:05:43.204Z,98.80
2023-02-15T01:08:15.216Z,99.10
2023-02-15T01:10:48.187Z,99.20
2023-02-15T01:13:20.573Z,99.30
2023-02-15T01:15:56.531Z,99.30
2023-02-15T01:18:28.813Z,99.10
2023-02-15T01:21:00.675Z,99.10
2023-02-15T01:23:34.216Z,99.00
2023-02-15T01:26:06.117Z,99.20
2023-02-15T01:28:38.485Z,99.00
2023-02-15T01:31:12.938Z,99.00
2023-02-15T01:33:44.939Z,99.00
2023-02-15T01:36:18.407Z,99.00
2023-02-15T01:38:50.441Z,99.00
2023-02-15T01:41:25.085Z,99.00
2023-02-15T01:43:59.923Z,98.80
2023-02-15T01:46:45.013Z,98.80
2023-02-15T01:49:21.225Z,98.90
2023-02-15T01:51:53.952Z,98.90
2023-02-15T01:54:33.247Z,98.80
2023-02-15T01:57:10.307Z,98.90
2023-02-15T01:59:45.731Z,99.00
2023-02-15T02:02:21.761Z,99.00
2023-02-15T02:04:57.669Z,98.80
2023-02-15T02:07:35.247Z,98.90
2023-02-15T02:10:10.463Z,99.10
2023-02-15T02:12:45.354Z,99.20
2023-02-15T02:15:17.750Z,99.10
2023-02-15T02:17:55.298Z,99.20
2023-02-15T02:21:00.439Z,99.00
2023-02-15T02:23:41.197Z,98.90
2023-02-15T02:26:37.423Z,98.90
2023-02-15T02:29:29.607Z,98.90
2023-02-15T02:32:06.998Z,99.00
2023-02-15T02:34:53.918Z,98.90
2023-02-15T02:37:36.148Z,98.80
2023-02-15T02:40:26.169Z,98.90
2023-02-15T02:43:24.900Z,98.70
2023-02-15T02:46:03.952Z,98.90
2023-02-15T02:48:38.291Z,98.80
2023-02-15T02:51:10.156Z,98.60
2023-02-15T02:53:42.164Z,98.50
2023-02-15T02:56:28.646Z,98.40
2023-02-15T02:59:10.741Z,98.80
2023-02-15T03:01:58.666Z,98.90
2023-02-15T03:04:37.363Z,98.70
2023-02-15T03:07:13.492Z,98.50
2023-02-15T03:09:50.583Z,98.10
2023-02-15T03:12:29.047Z,98.10
2023-02-15T03:15:14.069Z,98.20
2023-02-15T03:17:57.667Z,98.40
2023-02-15T03:20:34.649Z,98.20
2023-02-15T03:23:16.879Z,97.90
2023-02-15T03:25:53.654Z,97.90
2023-02-15T03:28:38.867Z,98.00
2023-02-15T03:31:14.896Z,97.90
2023-02-15T03:34:04.317Z,97.80
2023-02-15T03:36:38.917Z,97.80
2023-02-15T03:39:39.203Z,97.70
2023-02-15T03:42:17.970Z,97.60
2023-02-15T03:44:58.960Z,97.40
2023-02-15T03:47:40.627Z,97.60
2023-02-15T03:50:33.807Z,97.60
2023-02-15T03:53:10.330Z,97.70
2023-02-15T03:55:42.263Z,98.10
2023-02-15T03:58:32.747Z,97.80
2023-02-15T04:01:59.610Z,97.60
2023-02-15T04:04:36.056Z,97.80
2023-02-15T04:07:09.804Z,97.80
2023-02-15T04:10:00.048Z,97.60
2023-02-15T04:12:32.317Z,97.70
2023-02-15T04:15:23.073Z,97.80
2023-02-15T04:17:55.008Z,97.80
2023-02-15T04:20:45.440Z,97.70
2023-02-15T04:23:35.723Z,97.40
2023-02-15T04:26:07.573Z,97.40
2023-02-15T04:28:39.359Z,97.20
2023-02-15T04:31:11.295Z,97.10
2023-02-15T04:33:44.761Z,96.90
2023-02-15T04:36:16.664Z,97.00
2023-02-15T04:38:48.543Z,97.10
2023-02-15T04:41:20.339Z,97.00
2023-02-15T04:43:52.203Z,97.10
2023-02-15T04:46:24.237Z,97.10
2023-02-15T04:48:56.602Z,97.20
2023-02-15T04:51:28.637Z,97.30
2023-02-15T04:54:00.472Z,97.20
2023-02-15T04:56:34.201Z,97.10
2023-02-15T04:59:06.568Z,96.90
2023-02-15T05:01:38.383Z,96.90
2023-02-15T05:04:10.370Z,96.70
2023-02-15T05:06:42.266Z,96.60
2023-02-15T05:09:14.520Z,96.40
2023-02-15T05:11:46.753Z,96.40
2023-02-15T05:14:18.701Z,96.40
2023-02-15T05:16:50.753Z,96.30
2023-02-15T05:19:25.526Z,96.20
2023-02-15T05:21:57.425Z,96.10
2023-02-15T05:24:47.941Z,96.20
2023-02-15T05:27:38.210Z,96.50
2023-02-15T05:30:12.700Z,96.60
2023-02-15T05:32:44.728Z,96.80
2023-02-15T05:35:17.581Z,96.90
2023-02-15T05:37:49.415Z,96.90
2023-02-15T05:40:21.437Z,96.80
2023-02-15T05:42:53.249Z,96.70
2023-02-15T05:45:25.526Z,96.70
2023-02-15T05:47:59.090Z,97.00
2023-02-15T05:50:31.406Z,97.00
2023-02-15T05:53:05.272Z,97.00
2023-02-15T05:55:41.784Z,97.20
2023-02-15T05:58:13.628Z,97.60
2023-02-15T06:00:45.444Z,97.40
2023-02-15T06:03:17.311Z,97.20
2023-02-15T06:05:49.391Z,97.50
2023-02-15T06:08:21.992Z,97.30
2023-02-15T06:10:53.806Z,97.20
2023-02-15T06:13:26.589Z,97.00
2023-02-15T06:15:58.694Z,96.90
2023-02-15T06:18:30.704Z,97.00
2023-02-15T06:21:02.575Z,97.30
2023-02-15T06:23:34.405Z,97.60
2023-02-15T06:26:06.252Z,97.60
2023-02-15T06:28:38.426Z,98.00
2023-02-15T06:31:10.460Z,98.00
2023-02-15T06:33:42.398Z,97.80
2023-02-15T06:36:14.195Z,97.60
2023-02-15T06:38:46.096Z,97.70
2023-02-15T06:41:17.991Z,97.60
2023-02-15T06:43:50.056Z,97.50
2023-02-15T06:46:21.958Z,97.70
2023-02-15T06:48:53.906Z,98.00
2023-02-15T06:51:25.802Z,98.20
2023-02-15T06:53:57.604Z,98.40
2023-02-15T06:56:30.576Z,98.40
2023-02-15T06:59:02.498Z,98.00
2023-02-15T07:01:34.347Z,96.90
2023-02-15T07:04:06.604Z,96.30
2023-02-15T07:06:38.504Z,95.70
2023-02-15T07:09:10.493Z,96.20
2023-02-15T07:12:01.094Z,95.40
2023-02-15T07:14:33.047Z,93.80
2023-02-15T07:17:06.145Z,93.50
2023-02-15T07:19:39.189Z,93.20
2023-02-15T07:22:11.087Z,93.00
2023-02-15T07:24:42.853Z,93.00
2023-02-15T07:27:14.698Z,93.00
2023-02-15T07:29:46.593Z,92.50
2023-02-15T07:32:18.509Z,92.40
2023-02-15T07:34:50.372Z,92.00
2023-02-15T07:37:22.250Z,91.90
2023-02-15T07:39:54.357Z,91.80
2023-02-15T07:42:26.246Z,91.80
2023-02-15T07:44:58.123Z,91.60
2023-02-15T07:47:29.987Z,91.50
2023-02-15T07:50:01.871Z,91.50
2023-02-15T07:52:33.736Z,90.90
2023-02-15T07:55:06.401Z,90.50
2023-02-15T07:57:38.220Z,90.30
2023-02-15T08:00:10.730Z,90.00
2023-02-15T08:03:14.436Z,89.60
2023-02-15T08:05:46.619Z,89.20
2023-02-15T08:08:31.051Z,88.90
2023-02-15T08:11:24.140Z,88.90
2023-02-15T08:13:56.003Z,87.00
2023-02-15T08:16:34.679Z,87.30
2023-02-15T08:19:15.237Z,88.00
2023-02-15T08:21:55.964Z,87.80
2023-02-15T08:24:33.285Z,88.40
2023-02-15T08:27:07.401Z,86.50
2023-02-15T08:29:40.303Z,85.30
2023-02-15T08:32:13.727Z,85.20
2023-02-15T08:34:45.788Z,83.20
2023-02-15T08:37:17.651Z,82.10
2023-02-15T08:39:50.410Z,81.50
2023-02-15T08:42:22.324Z,81.40
2023-02-15T08:44:54.431Z,80.40
2023-02-15T08:47:26.367Z,79.90
2023-02-15T08:49:58.212Z,79.30
2023-02-15T08:52:30.072Z,85.70
2023-02-15T08:55:02.040Z,88.00
2023-02-15T08:57:33.932Z,89.40
2023-02-15T09:00:06.481Z,90.30
2023-02-15T09:02:38.485Z,90.60
2023-02-15T09:05:10.710Z,90.00
2023-02-15T09:07:42.552Z,89.20
2023-02-15T09:10:14.550Z,87.80
2023-02-15T09:12:46.486Z,87.90
2023-02-15T09:15:18.350Z,87.90
2023-02-15T09:17:50.243Z,89.10
2023-02-15T09:20:22.838Z,88.60
2023-02-15T09:22:58.120Z,89.10
2023-02-15T09:25:30.872Z,87.80
2023-02-15T09:28:02.727Z,87.00
2023-02-15T09:30:35.719Z,86.00
2023-02-15T09:33:07.767Z,84.80
2023-02-15T09:35:39.639Z,84.40
2023-02-15T09:38:12.968Z,84.90
2023-02-15T09:40:59.043Z,86.00
2023-02-15T09:43:46.107Z,87.80
2023-02-15T09:46:27.035Z,86.20
2023-02-15T09:49:10.473Z,86.50
2023-02-15T09:51:55.594Z,86.40
2023-02-15T09:54:33.503Z,85.80
2023-02-15T09:57:17.161Z,85.40
2023-02-15T10:00:23.813Z,85.40
2023-02-15T10:03:09.023Z,85.30
2023-02-15T10:05:58.927Z,85.50
2023-02-15T10:08:52.733Z,86.10
2023-02-15T10:11:51.030Z,86.90
2023-02-15T10:14:41.818Z,86.20
2023-02-15T10:17:19.664Z,86.90
2023-02-15T10:20:19.150Z,86.50
2023-02-15T10:23:36.000Z,87.10
2023-02-15T10:26:29.407Z,86.90
2023-02-15T10:29:17.605Z,87.20
2023-02-15T10:31:53.248Z,87.30
2023-02-15T10:34:40.478Z,87.70
2023-02-15T10:37:18.428Z,87.20
2023-02-15T10:40:05.050Z,87.50
2023-02-15T10:42:54.678Z,87.80
2023-02-15T10:45:55.103Z,87.90
2023-02-15T10:49:01.135Z,87.40
2023-02-15T10:51:50.917Z,86.70
2023-02-15T10:54:57.302Z,86.20
2023-02-15T10:57:38.633Z,85.10
2023-02-15T11:00:19.690Z,85.80
2023-02-15T11:03:26.856Z,86.20
2023-02-15T11:06:20.556Z,87.70
2023-02-15T11:09:00.887Z,87.00
2023-02-15T11:11:37.844Z,87.10
2023-02-15T11:14:22.705Z,87.30
2023-02-15T11:17:01.510Z,87.70
2023-02-15T11:19:37.536Z,87.40
2023-02-15T11:22:11.614Z,87.50
2023-02-15T11:24:46.258Z,87.30
2023-02-15T11:27:24.276Z,87.60
2023-02-15T11:30:02.017Z,87.40
2023-02-15T11:32:38.251Z,87.80
2023-02-15T11:35:25.354Z,87.90
2023-02-15T11:38:21.322Z,87.70
2023-02-15T11:41:00.878Z,87.50
2023-02-15T11:43:49.952Z,87.90
2023-02-15T11:46:22.731Z,87.50
2023-02-15T11:48:54.734Z,87.10
2023-02-15T11:51:28.883Z,87.50
2023-02-15T11:54:00.979Z,87.00
2023-02-15T11:56:34.260Z,87.20
2023-02-15T11:59:19.711Z,86.00
2023-02-15T12:01:52.457Z,86.60
2023-02-15T12:04:39.813Z,86.10
2023-02-15T12:07:23.612Z,85.60
2023-02-15T12:10:23.560Z,85.00
2023-02-15T12:13:12.447Z,84.70
2023-02-15T12:15:47.724Z,84.20
2023-02-15T12:18:41.842Z,84.00
2023-02-15T12:21:24.632Z,83.00
2023-02-15T12:24:05.099Z,82.40
2023-02-15T12:26:38.006Z,83.10
2023-02-15T12:29:17.968Z,82.80
2023-02-15T12:31:52.898Z,82.60
2023-02-15T12:34:34.304Z,83.00
2023-02-15T12:37:20.378Z,83.00
2023-02-15T12:40:00.603Z,83.00
2023-02-15T12:42:45.437Z,83.40
2023-02-15T12:45:29.635Z,83.70
2023-02-15T12:48:18.082Z,84.10
2023-02-15T12:50:56.404Z,83.60
2023-02-15T12:53:37.112Z,83.80
2023-02-15T12:56:10.985Z,82.30
2023-02-15T12:58:43.350Z,82.90
2023-02-15T13:01:21.128Z,82.00
2023-02-15T13:04:19.576Z,82.70
2023-02-15T13:06:54.713Z,82.00
2023-02-15T13:09:35.537Z,82.80
2023-02-15T13:12:24.417Z,82.30
2023-02-15T13:14:57.252Z,81.70
2023-02-15T13:17:35.780Z,81.50
2023-02-15T13:20:25.537Z,80.90
2023-02-15T13:23:07.021Z,81.50
2023-02-15T13:25:51.228Z,80.90
2023-02-15T13:28:32.680Z,80.40
2023-02-15T13:31:05.040Z,79.90
2023-02-15T13:33:39.151Z,80.20
2023-02-15T13:36:21.256Z,79.80
2023-02-15T13:39:21.009Z,79.50
2023-02-15T13:42:24.647Z,79.80
2023-02-15T13:45:08.374Z,79.80
2023-02-15T13:48:02.567Z,78.90
2023-02-15T13:50:34.425Z,79.30
2023-02-15T13:53:34.105Z,79.70
2023-02-15T13:56:32.705Z,79.50
2023-02-15T13:59:20.434Z,79.60
2023-02-15T14:01:59.155Z,80.20
2023-02-15T14:04:48.109Z,80.20
2023-02-15T14:07:27.966Z,80.00
2023-02-15T14:10:30.798Z,79.70
2023-02-15T14:13:10.564Z,79.50
2023-02-15T14:16:04.469Z,79.50
2023-02-15T14:18:52.234Z,79.60
2023-02-15T14:21:35.794Z,79.60
2023-02-15T14:24:28.172Z,79.40
2023-02-15T14:27:00.036Z,80.10
2023-02-15T14:29:54.925Z,80.00
2023-02-15T14:32:41.026Z,80.50
2023-02-15T14:35:22.050Z,80.90
2023-02-15T14:38:00.125Z,81.30
2023-02-15T14:41:04.386Z,81.00
2023-02-15T14:43:55.183Z,81.40
2023-02-15T14:46:55.988Z,81.40
2023-02-15T14:49:38.033Z,81.00
2023-02-15T14:52:12.494Z,81.20
2023-02-15T14:54:47.349Z,81.60
2023-02-15T14:57:19.228Z,81.60
2023-02-15T14:59:59.980Z,82.00
2023-02-15T15:02:49.293Z,82.10
2023-02-15T15:05:28.314Z,81.80
2023-02-15T15:08:05.740Z,82.30
2023-02-15T15:10:46.222Z,82.90
2023-02-15T15:13:33.313Z,83.10
2023-02-15T15:16:36.685Z,83.50
2023-02-15T15:19:13.430Z,83.10
2023-02-15T15:21:51.544Z,83.50
2023-02-15T15:24:38.755Z,83.20
2023-02-15T15:27:51.730Z,83.80
2023-02-15T15:30:24.574Z,84.10
2023-02-15T15:32:58.223Z,84.40
2023-02-15T15:36:12.314Z,84.90
2023-02-15T15:39:09.025Z,86.40
2023-02-15T15:42:06.964Z,86.50
2023-02-15T15:44:41.845Z,88.20
2023-02-15T15:47:34.950Z,88.50
2023-02-15T15:50:16.866Z,88.60
2023-02-15T15:52:53.137Z,89.50
2023-02-15T15:55:28.875Z,90.30
2023-02-15T15:58:05.569Z,90.40
2023-02-15T16:01:00.411Z,90.70
2023-02-15T16:03:32.845Z,90.60
2023-02-15T16:06:05.255Z,91.40
2023-02-15T16:08:42.785Z,91.80
2023-02-15T16:11:27.054Z,91.90
2023-02-15T16:13:58.999Z,91.50
2023-02-15T16:16:31.975Z,92.00
2023-02-15T16:19:04.366Z,92.20
2023-02-15T16:21:38.417Z,92.40
2023-02-15T16:24:44.532Z,91.70
2023-02-15T16:27:22.254Z,92.10
2023-02-15T16:29:54.493Z,92.40
2023-02-15T16:32:29.389Z,92.30
2023-02-15T16:35:03.810Z,92.50
2023-02-15T16:37:36.078Z,92.40
2023-02-15T16:40:26.515Z,92.40
2023-02-15T16:43:03.955Z,92.60
2023-02-15T16:45:38.726Z,93.30
2023-02-15T16:48:18.768Z,93.00
2023-02-15T16:50:55.772Z,93.30
2023-02-15T16:53:29.826Z,93.70
2023-02-15T16:56:04.907Z,94.00
2023-02-15T16:58:46.059Z,94.30
2023-02-15T17:01:24.506Z,94.20
2023-02-15T17:04:22.912Z,94.30
2023-02-15T17:07:18.236Z,94.60
2023-02-15T17:09:55.769Z,94.70
2023-02-15T17:12:48.416Z,94.90
2023-02-15T17:15:31.680Z,95.20
2023-02-15T17:18:10.311Z,95.30
2023-02-15T17:20:44.672Z,95.50
2023-02-15T17:23:34.989Z,95.70
2023-02-15T17:26:22.264Z,95.70
2023-02-15T17:28:59.811Z,95.90
2023-02-15T17:31:33.947Z,95.50
2023-02-15T17:34:06.774Z,95.70
2023-02-15T17:36:58.495Z,95.80
2023-02-15T17:39:30.404Z,96.10
2023-02-15T17:42:03.312Z,96.10
2023-02-15T17:44:35.194Z,96.10
2023-02-15T17:47:07.119Z,97.40
2023-02-15T17:49:38.961Z,96.60
2023-02-15T17:52:14.956Z,97.30
2023-02-15T17:55:05.653Z,96.60
2023-02-15T17:57:38.742Z,96.50
2023-02-15T18:00:33.453Z,96.50
2023-02-15T18:03:24.504Z,96.60
2023-02-15T18:06:18.899Z,96.70
2023-02-15T18:09:12.235Z,96.90
2023-02-15T18:11:48.701Z,96.80
2023-02-15T18:14:20.630Z,96.80
2023-02-15T18:16:52.872Z,97.10
2023-02-15T18:19:26.985Z,97.10
2023-02-15T18:21:58.908Z,97.30
2023-02-15T18:24:32.217Z,97.20
2023-02-15T18:27:05.320Z,97.30
2023-02-15T18:29:37.156Z,97.20
2023-02-15T18:32:16.544Z,97.30
2023-02-15T18:34:49.657Z,97.50
2023-02-15T18:37:22.796Z,97.70
2023-02-15T18:39:55.103Z,97.60
2023-02-15T18:42:31.412Z,97.50
2023-02-15T18:45:28.758Z,97.70
2023-02-15T18:48:00.982Z,97.80
2023-02-15T18:50:34.910Z,97.90
2023-02-15T18:53:15.438Z,98.10
2023-02-15T18:55:47.765Z,98.10
2023-02-15T18:58:22.524Z,98.10
2023-02-15T19:00:54.979Z,98.10
2023-02-15T19:03:27.571Z,97.90
2023-02-15T19:06:00.211Z,97.90
2023-02-15T19:08:32.132Z,98.00
2023-02-15T19:11:04.863Z,98.10
2023-02-15T19:13:36.893Z,98.00
2023-02-15T19:16:22.030Z,98.30
2023-02-15T19:18:54.229Z,98.30
2023-02-15T19:21:28.396Z,98.30
2023-02-15T19:24:05.284Z,98.20
2023-02-15T19:26:45.585Z,98.20
2023-02-15T19:29:25.262Z,98.30
2023-02-15T19:31:58.096Z,98.10
2023-02-15T19:34:30.564Z,98.10
2023-02-15T19:37:03.980Z,98.20
2023-02-15T19:39:39.647Z,98.10
2023-02-15T19:42:15.912Z,98.10
2023-02-15T19:44:47.916Z,98.00
2023-02-15T19:47:20.785Z,98.00
2023-02-15T19:49:55.358Z,98.00
2023-02-15T19:52:28.248Z,98.00
2023-02-15T19:55:00.475Z,98.30
2023-02-15T19:57:33.379Z,98.10
2023-02-15T20:00:22.266Z,98.00
2023-02-15T20:02:55.659Z,97.90
2023-02-15T20:05:29.755Z,98.00
2023-02-15T20:08:04.511Z,98.00
2023-02-15T20:10:37.327Z,97.90
2023-02-15T20:13:15.332Z,97.80
2023-02-15T20:15:50.820Z,97.60
2023-02-15T20:18:23.296Z,97.40
2023-02-15T20:20:56.262Z,97.20
2023-02-15T20:23:36.972Z,97.30
2023-02-15T20:26:19.452Z,97.30
2023-02-15T20:28:51.703Z,97.30
2023-02-15T20:31:26.915Z,97.60
2023-02-15T20:33:59.315Z,97.20
2023-02-15T20:36:31.536Z,97.10
2023-02-15T20:39:12.107Z,97.00
2023-02-15T20:41:50.522Z,96.90
2023-02-15T20:44:31.905Z,96.70
2023-02-15T20:47:04.895Z,96.50
2023-02-15T20:49:38.596Z,96.40
2023-02-15T20:52:20.930Z,96.40
2023-02-15T20:54:53.140Z,96.30
2023-02-15T20:57:25.197Z,96.30
2023-02-15T20:59:57.132Z,96.20
2023-02-15T21:02:29.074Z,95.90
2023-02-15T21:05:02.009Z,95.80
2023-02-15T21:07:33.899Z,95.60
2023-02-15T21:10:07.091Z,95.70
2023-02-15T21:12:39.037Z,95.70
2023-02-15T21:15:29.636Z,95.60
2023-02-15T21:18:07.206Z,95.50
2023-02-15T21:20:46.173Z,95.40
2023-02-15T21:23:22.994Z,95.40
2023-02-15T21:25:58.072Z,95.30
2023-02-15T21:28:30.372Z,95.20
2023-02-15T21:31:05.417Z,95.00
2023-02-15T21:33:37.488Z,95.00
2023-02-15T21:36:16.086Z,95.20
2023-02-15T21:38:48.836Z,95.00
2023-02-15T21:41:40.972Z,94.90
2023-02-15T21:44:38.385Z,95.10
2023-02-15T21:47:40.834Z,95.00
2023-02-15T21:50:36.701Z,94.80
2023-02-15T21:53:12.777Z,94.80
2023-02-15T21:55:46.947Z,94.80
2023-02-15T21:58:22.024Z,94.80
2023-02-15T22:00:56.171Z,94.70
2023-02-15T22:03:40.442Z,94.60
2023-02-15T22:06:13.795Z,94.50
2023-02-15T22:08:47.964Z,94.30
2023-02-15T22:11:24.691Z,94.30
2023-02-15T22:13:58.078Z,94.40
2023-02-15T22:16:30.663Z,94.20
2023-02-15T22:19:02.660Z,94.00
2023-02-15T22:21:34.469Z,94.00
2023-02-15T22:24:06.466Z,93.90
2023-02-15T22:26:38.421Z,93.90
2023-02-15T22:29:17.447Z,93.80
2023-02-15T22:31:49.661Z,93.70
2023-02-15T22:34:30.709Z,93.70
2023-02-15T22:37:03.268Z,93.70
2023-02-15T22:39:35.492Z,93.30
2023-02-15T22:42:20.201Z,93.30
2023-02-15T22:44:54.922Z,93.20
2023-02-15T22:47:29.669Z,93.40
2023-02-15T22:50:03.046Z,93.10
2023-02-15T22:52:34.933Z,93.20
2023-02-15T22:55:07.164Z,93.20
2023-02-15T22:57:39.010Z,93.20
2023-02-15T23:00:19.390Z,93.30
2023-02-15T23:02:51.480Z,93.30
2023-02-15T23:05:31.540Z,93.20
2023-02-15T23:08:03.496Z,93.40
2023-02-15T23:10:35.450Z,93.40
2023-02-15T23:13:25.716Z,93.30
2023-02-15T23:16:00.864Z,93.30
2023-02-15T23:18:37.327Z,93.30
2023-02-15T23:21:22.368Z,93.20
2023-02-15T23:23:58.929Z,93.00
2023-02-15T23:26:31.722Z,93.00
2023-02-15T23:29:04.188Z,93.20
2023-02-15T23:31:40.491Z,93.00
2023-02-15T23:34:31.883Z,92.90
2023-02-15T23:37:03.840Z,92.80
2023-02-15T23:39:54.156Z,92.80
2023-02-15T23:42:32.033Z,92.90
2023-02-15T23:45:05.335Z,93.00
2023-02-15T23:47:56.006Z,93.00
2023-02-15T23:50:30.202Z,92.90
2023-02-15T23:53:02.235Z,92.80
2023-02-15T23:55:43.230Z,92.70
2023-02-15T23:58:20.288Z,92.70
